sensor_id;sensor_type;location;lat;lon;timestamp;pressure;altitude;pressure_sealevel;temperature;humidity
22872;BME280;11603;44.910;8.630;2023-03-20T00:01:18;100881.59;;;13.22;100.00
22872;BME280;11603;44.910;8.630;2023-03-20T00:03:46;100883.63;;;13.19;100.00
22872;BME280;11603;44.910;8.630;2023-03-20T00:08:42;100879.53;;;13.13;100.00
22872;BME280;11603;44.910;8.630;2023-03-20T00:11:34;100888.28;;;13.02;100.00
22872;BME280;11603;44.910;8.630;2023-03-20T00:14:09;100881.66;;;12.81;100.00
22872;BME280;11603;44.910;8.630;2023-03-20T00:16:43;100883.25;;;12.71;100.00
22872;BME280;11603;44.910;8.630;2023-03-20T00:19:21;100880.00;;;12.66;100.00
22872;BME280;11603;44.910;8.630;2023-03-20T00:21:51;100881.91;;;12.64;100.00
22872;BME280;11603;44.910;8.630;2023-03-20T00:24:18;100873.88;;;12.64;100.00
22872;BME280;11603;44.910;8.630;2023-03-20T00:26:45;100878.38;;;12.63;100.00
22872;BME280;11603;44.910;8.630;2023-03-20T00:29:21;100872.44;;;12.58;100.00
22872;BME280;11603;44.910;8.630;2023-03-20T00:31:48;100876.94;;;12.58;100.00
22872;BME280;11603;44.910;8.630;2023-03-20T00:34:18;100869.66;;;12.60;100.00
22872;BME280;11603;44.910;8.630;2023-03-20T00:36:45;100873.41;;;12.57;100.00
22872;BME280;11603;44.910;8.630;2023-03-20T00:39:11;100878.78;;;12.57;100.00
22872;BME280;11603;44.910;8.630;2023-03-20T00:41:52;100880.81;;;12.54;100.00
22872;BME280;11603;44.910;8.630;2023-03-20T00:44:31;100875.94;;;12.46;100.00
22872;BME280;11603;44.910;8.630;2023-03-20T00:47:05;100882.94;;;12.49;100.00
22872;BME280;11603;44.910;8.630;2023-03-20T00:49:35;100885.63;;;12.49;100.00
22872;BME280;11603;44.910;8.630;2023-03-20T00:52:04;100875.84;;;12.48;100.00
22872;BME280;11603;44.910;8.630;2023-03-20T00:54:30;100881.41;;;12.45;100.00
22872;BME280;11603;44.910;8.630;2023-03-20T00:57:06;100880.16;;;12.50;100.00
22872;BME280;11603;44.910;8.630;2023-03-20T00:59:38;100881.09;;;12.49;100.00
22872;BME280;11603;44.910;8.630;2023-03-20T01:02:05;100876.44;;;12.39;100.00
22872;BME280;11603;44.910;8.630;2023-03-20T01:04:36;100884.88;;;12.32;100.00
22872;BME280;11603;44.910;8.630;2023-03-20T01:07:03;100880.47;;;12.31;100.00
22872;BME280;11603;44.910;8.630;2023-03-20T01:09:28;100877.50;;;12.36;100.00
22872;BME280;11603;44.910;8.630;2023-03-20T01:11:54;100880.94;;;12.38;100.00
22872;BME280;11603;44.910;8.630;2023-03-20T01:14:19;100882.84;;;12.36;100.00
22872;BME280;11603;44.910;8.630;2023-03-20T01:16:45;100882.97;;;12.35;100.00
22872;BME280;11603;44.910;8.630;2023-03-20T01:19:12;100887.78;;;12.29;100.00
22872;BME280;11603;44.910;8.630;2023-03-20T01:21:38;100878.38;;;12.22;100.00
22872;BME280;11603;44.910;8.630;2023-03-20T01:24:04;100876.66;;;12.21;100.00
22872;BME280;11603;44.910;8.630;2023-03-20T01:26:36;100875.63;;;12.24;100.00
22872;BME280;11603;44.910;8.630;2023-03-20T01:29:03;100873.88;;;12.23;100.00
22872;BME280;11603;44.910;8.630;2023-03-20T01:31:32;100871.84;;;12.26;100.00
22872;BME280;11603;44.910;8.630;2023-03-20T01:33:57;100879.03;;;12.26;100.00
22872;BME280;11603;44.910;8.630;2023-03-20T01:36:23;100877.03;;;12.29;100.00
22872;BME280;11603;44.910;8.630;2023-03-20T01:38:54;100869.19;;;12.26;100.00
22872;BME280;11603;44.910;8.630;2023-03-20T01:41:23;100863.91;;;12.25;100.00
22872;BME280;11603;44.910;8.630;2023-03-20T01:43:49;100858.53;;;12.25;100.00
22872;BME280;11603;44.910;8.630;2023-03-20T01:46:23;100862.28;;;12.22;100.00
22872;BME280;11603;44.910;8.630;2023-03-20T01:53:50;100857.84;;;12.09;100.00
22872;BME280;11603;44.910;8.630;2023-03-20T01:56:18;100849.97;;;12.06;100.00
22872;BME280;11603;44.910;8.630;2023-03-20T01:58:54;100855.34;;;12.06;100.00
22872;BME280;11603;44.910;8.630;2023-03-20T02:01:23;100847.84;;;12.11;100.00
22872;BME280;11603;44.910;8.630;2023-03-20T02:03:50;100845.09;;;12.12;100.00
22872;BME280;11603;44.910;8.630;2023-03-20T02:06:36;100854.47;;;12.05;100.00
22872;BME280;11603;44.910;8.630;2023-03-20T02:09:12;100843.19;;;12.00;100.00
22872;BME280;11603;44.910;8.630;2023-03-20T02:11:42;100842.44;;;11.98;100.00
22872;BME280;11603;44.910;8.630;2023-03-20T02:14:10;100839.66;;;11.85;100.00
22872;BME280;11603;44.910;8.630;2023-03-20T02:16:51;100838.13;;;11.81;100.00
22872;BME280;11603;44.910;8.630;2023-03-20T02:22:37;100834.19;;;11.73;100.00
22872;BME280;11603;44.910;8.630;2023-03-20T02:33:31;100833.03;;;11.63;100.00
22872;BME280;11603;44.910;8.630;2023-03-20T02:36:41;100827.78;;;11.61;100.00
22872;BME280;11603;44.910;8.630;2023-03-20T02:42:43;100829.91;;;11.56;100.00
22872;BME280;11603;44.910;8.630;2023-03-20T02:50:50;100828.72;;;11.60;100.00
22872;BME280;11603;44.910;8.630;2023-03-20T02:58:46;100822.22;;;11.50;100.00
22872;BME280;11603;44.910;8.630;2023-03-20T03:01:26;100826.34;;;11.56;100.00
22872;BME280;11603;44.910;8.630;2023-03-20T03:04:06;100817.75;;;11.51;100.00
22872;BME280;11603;44.910;8.630;2023-03-20T03:06:36;100818.13;;;11.44;100.00
22872;BME280;11603;44.910;8.630;2023-03-20T03:09:11;100818.28;;;11.41;100.00
22872;BME280;11603;44.910;8.630;2023-03-20T03:11:47;100823.06;;;11.36;100.00
22872;BME280;11603;44.910;8.630;2023-03-20T03:14:34;100824.78;;;11.37;100.00
22872;BME280;11603;44.910;8.630;2023-03-20T03:17:04;100824.22;;;11.32;100.00
22872;BME280;11603;44.910;8.630;2023-03-20T03:19:31;100828.34;;;11.24;100.00
22872;BME280;11603;44.910;8.630;2023-03-20T03:21:59;100830.06;;;11.25;100.00
22872;BME280;11603;44.910;8.630;2023-03-20T03:24:37;100837.22;;;11.24;100.00
22872;BME280;11603;44.910;8.630;2023-03-20T03:27:11;100837.22;;;11.24;100.00
22872;BME280;11603;44.910;8.630;2023-03-20T03:29:39;100837.22;;;11.24;100.00
22872;BME280;11603;44.910;8.630;2023-03-20T03:32:29;100838.25;;;11.22;100.00
22872;BME280;11603;44.910;8.630;2023-03-20T03:34:57;100838.19;;;11.23;100.00
22872;BME280;11603;44.910;8.630;2023-03-20T03:43:01;100851.84;;;10.89;100.00
22872;BME280;11603;44.910;8.630;2023-03-20T03:45:43;100853.22;;;10.96;100.00
22872;BME280;11603;44.910;8.630;2023-03-20T03:48:20;100851.31;;;10.98;100.00
22872;BME280;11603;44.910;8.630;2023-03-20T03:50:53;100853.63;;;11.04;100.00
22872;BME280;11603;44.910;8.630;2023-03-20T03:53:24;100857.06;;;11.06;100.00
22872;BME280;11603;44.910;8.630;2023-03-20T03:55:58;100856.19;;;11.05;100.00
22872;BME280;11603;44.910;8.630;2023-03-20T03:58:27;100854.22;;;11.09;100.00
22872;BME280;11603;44.910;8.630;2023-03-20T04:00:54;100855.53;;;11.02;100.00
22872;BME280;11603;44.910;8.630;2023-03-20T04:03:25;100855.50;;;10.88;100.00
22872;BME280;11603;44.910;8.630;2023-03-20T04:05:55;100863.56;;;10.72;100.00
22872;BME280;11603;44.910;8.630;2023-03-20T04:08:22;100858.03;;;10.75;100.00
22872;BME280;11603;44.910;8.630;2023-03-20T04:10:48;100861.97;;;10.84;100.00
22872;BME280;11603;44.910;8.630;2023-03-20T04:13:13;100865.22;;;10.89;100.00
22872;BME280;11603;44.910;8.630;2023-03-20T04:15:41;100863.22;;;10.62;100.00
22872;BME280;11603;44.910;8.630;2023-03-20T04:18:13;100869.69;;;10.58;100.00
22872;BME280;11603;44.910;8.630;2023-03-20T04:20:39;100869.44;;;10.47;100.00
22872;BME280;11603;44.910;8.630;2023-03-20T04:23:05;100879.38;;;10.61;100.00
22872;BME280;11603;44.910;8.630;2023-03-20T04:25:32;100871.34;;;10.61;100.00
22872;BME280;11603;44.910;8.630;2023-03-20T04:27:57;100872.88;;;10.65;100.00
22872;BME280;11603;44.910;8.630;2023-03-20T04:30:40;100869.88;;;10.55;100.00
22872;BME280;11603;44.910;8.630;2023-03-20T04:33:15;100878.78;;;10.56;100.00
22872;BME280;11603;44.910;8.630;2023-03-20T04:36:00;100876.97;;;10.56;100.00
22872;BME280;11603;44.910;8.630;2023-03-20T04:38:25;100887.56;;;10.42;100.00
22872;BME280;11603;44.910;8.630;2023-03-20T04:40:52;100879.47;;;10.44;100.00
22872;BME280;11603;44.910;8.630;2023-03-20T04:43:18;100882.81;;;10.47;100.00
22872;BME280;11603;44.910;8.630;2023-03-20T04:45:44;100885.16;;;10.53;100.00
22872;BME280;11603;44.910;8.630;2023-03-20T04:48:11;100883.28;;;10.40;100.00
22872;BME280;11603;44.910;8.630;2023-03-20T04:50:37;100886.81;;;10.40;100.00
22872;BME280;11603;44.910;8.630;2023-03-20T04:53:04;100884.63;;;10.31;100.00
22872;BME280;11603;44.910;8.630;2023-03-20T04:55:30;100890.34;;;10.25;100.00
22872;BME280;11603;44.910;8.630;2023-03-20T04:57:55;100887.47;;;10.12;100.00
22872;BME280;11603;44.910;8.630;2023-03-20T05:00:22;100887.25;;;10.00;100.00
22872;BME280;11603;44.910;8.630;2023-03-20T05:02:49;100882.44;;;9.91;100.00
22872;BME280;11603;44.910;8.630;2023-03-20T05:05:15;100882.47;;;9.73;100.00
22872;BME280;11603;44.910;8.630;2023-03-20T05:07:42;100875.81;;;9.65;100.00
22872;BME280;11603;44.910;8.630;2023-03-20T05:10:10;100886.06;;;9.57;100.00
22872;BME280;11603;44.910;8.630;2023-03-20T05:12:49;100884.66;;;9.50;100.00
22872;BME280;11603;44.910;8.630;2023-03-20T05:15:32;100890.88;;;9.50;100.00
22872;BME280;11603;44.910;8.630;2023-03-20T05:18:26;100899.81;;;9.49;100.00
22872;BME280;11603;44.910;8.630;2023-03-20T05:21:06;100908.50;;;9.53;100.00
22872;BME280;11603;44.910;8.630;2023-03-20T05:23:58;100904.22;;;9.50;100.00
22872;BME280;11603;44.910;8.630;2023-03-20T05:26:44;100911.69;;;9.44;100.00
22872;BME280;11603;44.910;8.630;2023-03-20T05:29:34;100907.28;;;9.43;100.00
22872;BME280;11603;44.910;8.630;2023-03-20T05:32:18;100917.75;;;9.47;100.00
22872;BME280;11603;44.910;8.630;2023-03-20T05:35:02;100911.59;;;9.45;100.00
22872;BME280;11603;44.910;8.630;2023-03-20T05:37:45;100918.75;;;9.45;100.00
22872;BME280;11603;44.910;8.630;2023-03-20T05:40:19;100920.78;;;9.40;100.00
22872;BME280;11603;44.910;8.630;2023-03-20T05:43:01;100930.59;;;9.39;100.00
22872;BME280;11603;44.910;8.630;2023-03-20T05:45:35;100937.28;;;9.30;100.00
22872;BME280;11603;44.910;8.630;2023-03-20T05:48:24;100940.50;;;9.37;100.00
22872;BME280;11603;44.910;8.630;2023-03-20T05:51:07;100945.13;;;9.33;100.00
22872;BME280;11603;44.910;8.630;2023-03-20T05:53:56;100947.81;;;9.33;100.00
22872;BME280;11603;44.910;8.630;2023-03-20T05:56:56;100955.50;;;9.40;100.00
22872;BME280;11603;44.910;8.630;2023-03-20T05:59:34;100950.16;;;9.40;100.00
22872;BME280;11603;44.910;8.630;2023-03-20T06:02:18;100956.19;;;9.43;100.00
22872;BME280;11603;44.910;8.630;2023-03-20T06:04:54;100953.28;;;9.48;100.00
22872;BME280;11603;44.910;8.630;2023-03-20T06:07:28;100954.00;;;9.51;100.00
22872;BME280;11603;44.910;8.630;2023-03-20T06:09:59;100953.59;;;9.59;100.00
22872;BME280;11603;44.910;8.630;2023-03-20T06:12:25;100952.41;;;9.64;100.00
22872;BME280;11603;44.910;8.630;2023-03-20T06:14:50;100953.97;;;9.68;100.00
22872;BME280;11603;44.910;8.630;2023-03-20T06:17:16;100954.53;;;9.75;100.00
22872;BME280;11603;44.910;8.630;2023-03-20T06:19:48;100968.25;;;9.85;100.00
22872;BME280;11603;44.910;8.630;2023-03-20T06:22:13;100969.44;;;9.79;100.00
22872;BME280;11603;44.910;8.630;2023-03-20T06:24:39;100964.81;;;9.83;100.00
22872;BME280;11603;44.910;8.630;2023-03-20T06:27:06;100963.94;;;9.82;100.00
22872;BME280;11603;44.910;8.630;2023-03-20T06:29:31;100969.28;;;9.82;100.00
22872;BME280;11603;44.910;8.630;2023-03-20T06:32:09;100968.34;;;9.83;100.00
22872;BME280;11603;44.910;8.630;2023-03-20T06:34:37;100970.69;;;9.89;100.00
22872;BME280;11603;44.910;8.630;2023-03-20T06:37:02;100962.19;;;9.98;100.00
22872;BME280;11603;44.910;8.630;2023-03-20T06:39:28;100974.38;;;10.04;100.00
22872;BME280;11603;44.910;8.630;2023-03-20T06:41:54;100968.75;;;10.08;100.00
22872;BME280;11603;44.910;8.630;2023-03-20T06:44:23;100968.59;;;10.11;100.00
22872;BME280;11603;44.910;8.630;2023-03-20T06:47:18;100973.63;;;10.17;100.00
22872;BME280;11603;44.910;8.630;2023-03-20T06:49:43;100967.69;;;10.28;100.00
22872;BME280;11603;44.910;8.630;2023-03-20T06:52:17;100984.22;;;10.36;100.00
22872;BME280;11603;44.910;8.630;2023-03-20T06:54:50;100980.41;;;10.40;100.00
22872;BME280;11603;44.910;8.630;2023-03-20T06:57:16;100986.44;;;10.44;100.00
22872;BME280;11603;44.910;8.630;2023-03-20T06:59:43;100992.31;;;10.35;100.00
22872;BME280;11603;44.910;8.630;2023-03-20T07:02:10;100990.50;;;10.35;100.00
22872;BME280;11603;44.910;8.630;2023-03-20T07:04:36;100998.59;;;10.34;100.00
22872;BME280;11603;44.910;8.630;2023-03-20T07:07:02;100998.59;;;10.34;100.00
22872;BME280;11603;44.910;8.630;2023-03-20T07:09:29;101010.09;;;10.36;100.00
22872;BME280;11603;44.910;8.630;2023-03-20T07:11:55;101002.94;;;10.36;100.00
22872;BME280;11603;44.910;8.630;2023-03-20T07:14:21;101001.81;;;10.40;100.00
22872;BME280;11603;44.910;8.630;2023-03-20T07:16:57;101002.56;;;10.42;100.00
22872;BME280;11603;44.910;8.630;2023-03-20T07:19:23;101004.84;;;10.50;100.00
22872;BME280;11603;44.910;8.630;2023-03-20T07:21:57;101008.38;;;10.50;100.00
22872;BME280;11603;44.910;8.630;2023-03-20T07:24:27;101005.84;;;10.63;100.00
22872;BME280;11603;44.910;8.630;2023-03-20T07:26:53;101016.16;;;10.71;100.00
22872;BME280;11603;44.910;8.630;2023-03-20T07:29:19;101007.19;;;10.72;100.00
22872;BME280;11603;44.910;8.630;2023-03-20T07:31:45;101009.06;;;10.70;100.00
22872;BME280;11603;44.910;8.630;2023-03-20T07:34:15;101019.69;;;10.71;100.00
22872;BME280;11603;44.910;8.630;2023-03-20T07:36:42;101009.84;;;10.72;100.00
22872;BME280;11603;44.910;8.630;2023-03-20T07:39:10;101016.06;;;10.72;100.00
22872;BME280;11603;44.910;8.630;2023-03-20T07:41:38;101021.91;;;10.63;100.00
22872;BME280;11603;44.910;8.630;2023-03-20T07:44:07;101019.25;;;10.63;100.00
22872;BME280;11603;44.910;8.630;2023-03-20T07:46:45;101020.81;;;10.67;100.00
22872;BME280;11603;44.910;8.630;2023-03-20T07:49:12;101023.72;;;10.62;100.00
22872;BME280;11603;44.910;8.630;2023-03-20T07:51:38;101021.50;;;10.71;100.00
22872;BME280;11603;44.910;8.630;2023-03-20T07:54:04;101028.13;;;10.79;100.00
22872;BME280;11603;44.910;8.630;2023-03-20T07:56:30;101027.63;;;10.73;100.00
22872;BME280;11603;44.910;8.630;2023-03-20T07:58:56;101032.19;;;10.71;100.00
22872;BME280;11603;44.910;8.630;2023-03-20T08:01:21;101035.16;;;10.82;100.00
22872;BME280;11603;44.910;8.630;2023-03-20T08:03:47;101041.25;;;10.84;100.00
22872;BME280;11603;44.910;8.630;2023-03-20T08:06:12;101033.22;;;10.84;100.00
22872;BME280;11603;44.910;8.630;2023-03-20T08:08:38;101041.84;;;10.89;100.00
22872;BME280;11603;44.910;8.630;2023-03-20T08:11:04;101039.56;;;10.83;100.00
22872;BME280;11603;44.910;8.630;2023-03-20T08:13:30;101031.09;;;10.90;100.00
22872;BME280;11603;44.910;8.630;2023-03-20T08:15:55;101041.72;;;10.92;100.00
22872;BME280;11603;44.910;8.630;2023-03-20T08:18:21;101034.63;;;10.91;100.00
22872;BME280;11603;44.910;8.630;2023-03-20T08:20:47;101029.53;;;10.86;100.00
22872;BME280;11603;44.910;8.630;2023-03-20T08:23:15;101034.28;;;10.97;100.00
22872;BME280;11603;44.910;8.630;2023-03-20T08:25:40;101034.34;;;11.11;100.00
22872;BME280;11603;44.910;8.630;2023-03-20T08:28:06;101023.81;;;11.08;100.00
22872;BME280;11603;44.910;8.630;2023-03-20T08:30:32;101037.38;;;10.89;100.00
22872;BME280;11603;44.910;8.630;2023-03-20T08:32:57;101036.88;;;10.98;100.00
22872;BME280;11603;44.910;8.630;2023-03-20T08:35:23;101041.50;;;11.11;100.00
22872;BME280;11603;44.910;8.630;2023-03-20T08:37:49;101050.94;;;11.18;100.00
22872;BME280;11603;44.910;8.630;2023-03-20T08:40:14;101060.00;;;11.15;100.00
22872;BME280;11603;44.910;8.630;2023-03-20T08:42:41;101065.00;;;10.90;100.00
22872;BME280;11603;44.910;8.630;2023-03-20T08:45:07;101064.91;;;10.76;100.00
22872;BME280;11603;44.910;8.630;2023-03-20T08:47:33;101066.47;;;10.80;100.00
22872;BME280;11603;44.910;8.630;2023-03-20T08:49:58;101066.66;;;10.92;100.00
22872;BME280;11603;44.910;8.630;2023-03-20T08:52:24;101066.66;;;10.77;100.00
22872;BME280;11603;44.910;8.630;2023-03-20T08:54:51;101068.41;;;10.93;100.00
22872;BME280;11603;44.910;8.630;2023-03-20T08:57:17;101068.72;;;10.87;100.00
22872;BME280;11603;44.910;8.630;2023-03-20T08:59:42;101070.97;;;10.95;100.00
22872;BME280;11603;44.910;8.630;2023-03-20T09:02:09;101073.38;;;11.15;100.00
22872;BME280;11603;44.910;8.630;2023-03-20T09:04:35;101078.22;;;11.24;100.00
22872;BME280;11603;44.910;8.630;2023-03-20T09:07:02;101074.56;;;11.25;100.00
22872;BME280;11603;44.910;8.630;2023-03-20T09:09:28;101072.88;;;11.24;100.00
22872;BME280;11603;44.910;8.630;2023-03-20T09:11:55;101079.44;;;11.34;100.00
22872;BME280;11603;44.910;8.630;2023-03-20T09:14:22;101076.13;;;11.45;100.00
22872;BME280;11603;44.910;8.630;2023-03-20T09:16:48;101074.94;;;11.35;100.00
22872;BME280;11603;44.910;8.630;2023-03-20T09:19:14;101070.09;;;11.26;100.00
22872;BME280;11603;44.910;8.630;2023-03-20T09:21:39;101067.78;;;11.35;100.00
22872;BME280;11603;44.910;8.630;2023-03-20T09:24:05;101074.81;;;11.36;100.00
22872;BME280;11603;44.910;8.630;2023-03-20T09:26:31;101087.88;;;11.27;100.00
22872;BME280;11603;44.910;8.630;2023-03-20T09:28:56;101082.00;;;11.20;100.00
22872;BME280;11603;44.910;8.630;2023-03-20T09:31:22;101083.75;;;11.05;100.00
22872;BME280;11603;44.910;8.630;2023-03-20T09:33:47;101085.47;;;11.07;100.00
22872;BME280;11603;44.910;8.630;2023-03-20T09:36:13;101084.00;;;11.17;100.00
22872;BME280;11603;44.910;8.630;2023-03-20T09:38:40;101081.06;;;11.21;100.00
22872;BME280;11603;44.910;8.630;2023-03-20T09:41:16;101077.09;;;11.13;100.00
22872;BME280;11603;44.910;8.630;2023-03-20T09:54:32;101069.13;;;11.72;100.00
22872;BME280;11603;44.910;8.630;2023-03-20T09:57:01;101070.03;;;11.73;100.00
22872;BME280;11603;44.910;8.630;2023-03-20T09:59:29;101066.31;;;11.75;100.00
22872;BME280;11603;44.910;8.630;2023-03-20T10:02:05;101063.09;;;11.69;100.00
22872;BME280;11603;44.910;8.630;2023-03-20T10:04:36;101058.09;;;11.63;100.00
22872;BME280;11603;44.910;8.630;2023-03-20T10:07:03;101048.16;;;11.80;100.00
22872;BME280;11603;44.910;8.630;2023-03-20T10:09:30;101050.78;;;11.96;100.00
22872;BME280;11603;44.910;8.630;2023-03-20T10:15:47;101040.09;;;12.24;100.00
22872;BME280;11603;44.910;8.630;2023-03-20T10:20:24;101041.00;;;12.09;100.00
22872;BME280;11603;44.910;8.630;2023-03-20T10:22:57;101036.44;;;12.11;100.00
22872;BME280;11603;44.910;8.630;2023-03-20T10:25:33;101038.00;;;12.29;100.00
22872;BME280;11603;44.910;8.630;2023-03-20T10:28:00;101037.69;;;12.48;100.00
22872;BME280;11603;44.910;8.630;2023-03-20T10:41:01;101018.56;;;12.81;100.00
22872;BME280;11603;44.910;8.630;2023-03-20T10:43:30;101017.25;;;12.74;100.00
22872;BME280;11603;44.910;8.630;2023-03-20T10:46:04;101018.88;;;12.77;100.00
22872;BME280;11603;44.910;8.630;2023-03-20T10:48:43;101013.00;;;12.84;100.00
22872;BME280;11603;44.910;8.630;2023-03-20T10:51:19;101015.19;;;12.92;100.00
22872;BME280;11603;44.910;8.630;2023-03-20T10:53:57;101014.94;;;13.09;100.00
22872;BME280;11603;44.910;8.630;2023-03-20T10:56:43;101018.63;;;13.35;100.00
22872;BME280;11603;44.910;8.630;2023-03-20T10:59:41;101007.97;;;13.60;100.00
22872;BME280;11603;44.910;8.630;2023-03-20T11:02:12;101012.69;;;13.69;100.00
22872;BME280;11603;44.910;8.630;2023-03-20T11:04:38;101016.56;;;13.78;100.00
22872;BME280;11603;44.910;8.630;2023-03-20T11:07:24;101018.22;;;13.80;100.00
22872;BME280;11603;44.910;8.630;2023-03-20T11:12:43;101015.84;;;13.88;100.00
22872;BME280;11603;44.910;8.630;2023-03-20T11:17:37;101013.91;;;14.16;100.00
22872;BME280;11603;44.910;8.630;2023-03-20T11:20:03;101004.03;;;14.41;100.00
22872;BME280;11603;44.910;8.630;2023-03-20T11:22:29;100991.88;;;14.85;100.00
22872;BME280;11603;44.910;8.630;2023-03-20T11:25:01;100990.81;;;15.11;100.00
22872;BME280;11603;44.910;8.630;2023-03-20T11:27:30;100993.72;;;15.32;100.00
22872;BME280;11603;44.910;8.630;2023-03-20T11:29:57;100994.09;;;15.27;100.00
22872;BME280;11603;44.910;8.630;2023-03-20T11:32:54;100989.50;;;15.17;100.00
22872;BME280;11603;44.910;8.630;2023-03-20T11:37:50;100985.91;;;14.69;100.00
22872;BME280;11603;44.910;8.630;2023-03-20T11:40:30;100979.72;;;14.18;100.00
22872;BME280;11603;44.910;8.630;2023-03-20T11:45:26;100978.63;;;13.95;100.00
22872;BME280;11603;44.910;8.630;2023-03-20T11:47:54;100981.00;;;13.99;100.00
22872;BME280;11603;44.910;8.630;2023-03-20T11:50:35;100972.72;;;14.28;100.00
22872;BME280;11603;44.910;8.630;2023-03-20T11:53:02;100965.94;;;14.71;100.00
22872;BME280;11603;44.910;8.630;2023-03-20T11:55:31;100955.94;;;14.97;100.00
22872;BME280;11603;44.910;8.630;2023-03-20T11:57:59;100951.94;;;15.26;100.00
22872;BME280;11603;44.910;8.630;2023-03-20T12:00:39;100956.09;;;15.31;100.00
22872;BME280;11603;44.910;8.630;2023-03-20T12:05:59;100933.47;;;15.68;100.00
22872;BME280;11603;44.910;8.630;2023-03-20T12:08:26;100940.22;;;15.74;100.00
22872;BME280;11603;44.910;8.630;2023-03-20T12:11:05;100935.16;;;15.34;100.00
22872;BME280;11603;44.910;8.630;2023-03-20T12:13:34;100932.84;;;15.64;100.00
22872;BME280;11603;44.910;8.630;2023-03-20T12:16:15;100923.66;;;15.67;100.00
22872;BME280;11603;44.910;8.630;2023-03-20T12:18:45;100916.66;;;15.76;100.00
22872;BME280;11603;44.910;8.630;2023-03-20T12:21:29;100914.97;;;15.75;100.00
22872;BME280;11603;44.910;8.630;2023-03-20T12:24:07;100925.78;;;15.86;100.00
22872;BME280;11603;44.910;8.630;2023-03-20T12:26:56;100913.75;;;16.01;100.00
22872;BME280;11603;44.910;8.630;2023-03-20T12:29:31;100915.97;;;15.96;100.00
22872;BME280;11603;44.910;8.630;2023-03-20T12:32:04;100902.94;;;16.23;100.00
22872;BME280;11603;44.910;8.630;2023-03-20T12:34:40;100901.47;;;16.41;100.00
22872;BME280;11603;44.910;8.630;2023-03-20T12:37:10;100892.63;;;16.39;100.00
22872;BME280;11603;44.910;8.630;2023-03-20T12:39:44;100884.69;;;16.27;100.00
22872;BME280;11603;44.910;8.630;2023-03-20T12:45:15;100873.03;;;16.04;100.00
22872;BME280;11603;44.910;8.630;2023-03-20T12:50:36;100866.28;;;16.09;100.00
22872;BME280;11603;44.910;8.630;2023-03-20T12:58:40;100869.03;;;16.52;100.00
22872;BME280;11603;44.910;8.630;2023-03-20T13:01:24;100861.19;;;16.61;100.00
22872;BME280;11603;44.910;8.630;2023-03-20T13:11:54;100848.22;;;17.07;100.00
22872;BME280;11603;44.910;8.630;2023-03-20T13:17:16;100843.09;;;17.04;100.00
22872;BME280;11603;44.910;8.630;2023-03-20T13:20:00;100852.13;;;17.14;100.00
22872;BME280;11603;44.910;8.630;2023-03-20T13:22:36;100851.94;;;17.27;100.00
22872;BME280;11603;44.910;8.630;2023-03-20T13:25:24;100842.13;;;17.26;100.00
22872;BME280;11603;44.910;8.630;2023-03-20T13:27:54;100836.09;;;17.43;100.00
22872;BME280;11603;44.910;8.630;2023-03-20T13:36:01;100829.03;;;17.52;100.00
22872;BME280;11603;44.910;8.630;2023-03-20T13:38:34;100829.50;;;17.57;100.00
22872;BME280;11603;44.910;8.630;2023-03-20T13:41:03;100827.66;;;17.57;100.00
22872;BME280;11603;44.910;8.630;2023-03-20T13:43:36;100833.84;;;17.27;100.00
22872;BME280;11603;44.910;8.630;2023-03-20T13:46:10;100827.41;;;17.40;100.00
22872;BME280;11603;44.910;8.630;2023-03-20T13:48:41;100826.59;;;17.49;100.00
22872;BME280;11603;44.910;8.630;2023-03-20T13:51:28;100823.63;;;17.52;100.00
22872;BME280;11603;44.910;8.630;2023-03-20T13:56:53;100822.41;;;17.86;100.00
22872;BME280;11603;44.910;8.630;2023-03-20T14:02:26;100819.16;;;17.92;100.00
22872;BME280;11603;44.910;8.630;2023-03-20T14:05:08;100818.22;;;17.72;100.00
22872;BME280;11603;44.910;8.630;2023-03-20T14:07:37;100817.94;;;17.75;100.00
22872;BME280;11603;44.910;8.630;2023-03-20T14:13:00;100819.13;;;17.83;100.00
22872;BME280;11603;44.910;8.630;2023-03-20T14:15:31;100812.47;;;17.96;100.00
22872;BME280;11603;44.910;8.630;2023-03-20T14:17:57;100812.19;;;17.99;100.00
22872;BME280;11603;44.910;8.630;2023-03-20T14:20:31;100810.94;;;18.03;100.00
22872;BME280;11603;44.910;8.630;2023-03-20T14:22:57;100810.69;;;18.16;100.00
22872;BME280;11603;44.910;8.630;2023-03-20T14:25:24;100802.28;;;18.19;100.00
22872;BME280;11603;44.910;8.630;2023-03-20T14:28:24;100804.66;;;18.03;100.00
22872;BME280;11603;44.910;8.630;2023-03-20T14:31:10;100806.69;;;18.10;100.00
22872;BME280;11603;44.910;8.630;2023-03-20T14:33:41;100797.53;;;18.11;100.00
22872;BME280;11603;44.910;8.630;2023-03-20T14:36:18;100801.28;;;18.20;100.00
22872;BME280;11603;44.910;8.630;2023-03-20T14:41:27;100792.41;;;17.99;100.00
22872;BME280;11603;44.910;8.630;2023-03-20T14:44:04;100796.41;;;18.04;100.00
22872;BME280;11603;44.910;8.630;2023-03-20T14:51:55;100795.53;;;18.04;100.00
22872;BME280;11603;44.910;8.630;2023-03-20T14:56:49;100789.16;;;18.14;100.00
22872;BME280;11603;44.910;8.630;2023-03-20T14:59:17;100791.31;;;18.20;100.00
22872;BME280;11603;44.910;8.630;2023-03-20T15:01:55;100789.75;;;18.28;100.00
22872;BME280;11603;44.910;8.630;2023-03-20T15:09:33;100782.47;;;18.18;93.78
22872;BME280;11603;44.910;8.630;2023-03-20T15:12:02;100777.34;;;18.15;92.57
22872;BME280;11603;44.910;8.630;2023-03-20T15:14:40;100775.63;;;18.14;89.92